createdAt,value
2019-03-19T00:00:42.512Z,0.20
2019-03-19T00:01:42.533Z,0.20
2019-03-19T00:02:42.485Z,0.20
2019-03-19T00:03:42.475Z,0.20
2019-03-19T00:04:42.461Z,0.40
2019-03-19T00:05:42.458Z,0.20
2019-03-19T00:06:42.445Z,0.10
2019-03-19T00:07:42.445Z,0.20
2019-03-19T00:08:42.425Z,0.10
2019-03-19T00:09:42.426Z,0.20
2019-03-19T00:10:42.399Z,0.20
2019-03-19T00:11:42.382Z,0.20
2019-03-19T00:12:42.380Z,0.20
2019-03-19T00:13:42.383Z,0.20
2019-03-19T00:14:42.353Z,0.20
2019-03-19T00:15:42.339Z,0.20
2019-03-19T00:16:42.330Z,0.20
2019-03-19T00:17:42.322Z,0.20
2019-03-19T00:18:42.311Z,0.10
2019-03-19T00:19:42.314Z,0.20
2019-03-19T00:20:42.290Z,0.20
2019-03-19T00:21:54.102Z,0.20
2019-03-19T00:22:42.261Z,0.30
2019-03-19T00:23:42.258Z,0.10
2019-03-19T00:24:42.244Z,0.10
2019-03-19T00:25:42.240Z,0.10
2019-03-19T00:26:42.217Z,0.10
2019-03-19T00:27:42.205Z,0.10
2019-03-19T00:28:42.200Z,0.10
2019-03-19T00:29:42.182Z,0.30
2019-03-19T00:30:42.192Z,0.20
2019-03-19T00:31:42.164Z,0.20
2019-03-19T00:32:42.158Z,0.20
2019-03-19T00:33:42.146Z,0.20
2019-03-19T00:34:42.137Z,0.20
2019-03-19T00:35:42.124Z,0.10
2019-03-19T00:36:42.114Z,0.20
2019-03-19T00:37:42.094Z,0.20
2019-03-19T00:38:42.083Z,0.20
2019-03-19T00:39:42.072Z,0.50
2019-03-19T00:40:42.111Z,0.30
2019-03-19T00:41:42.090Z,0.10
2019-03-19T00:42:42.043Z,0.10
2019-03-19T00:43:42.032Z,0.20
2019-03-19T00:44:42.017Z,0.20
2019-03-19T00:45:42.013Z,0.10
2019-03-19T00:46:41.994Z,0.30
2019-03-19T00:47:41.991Z,0.10
2019-03-19T00:48:41.975Z,0.20
2019-03-19T00:49:41.969Z,0.10
2019-03-19T00:50:41.957Z,0.20
2019-03-19T00:51:41.940Z,0.10
2019-03-19T00:52:53.174Z,0.20
2019-03-19T00:53:41.917Z,0.20
2019-03-19T00:54:41.906Z,0.20
2019-03-19T00:55:41.895Z,0.10
2019-03-19T00:56:41.885Z,0.10
2019-03-19T00:57:41.918Z,0.10
2019-03-19T00:58:41.865Z,0.20
2019-03-19T00:59:41.852Z,0.30
2019-03-19T01:00:41.844Z,0.20
2019-03-19T01:01:41.837Z,0.10
2019-03-19T01:02:41.824Z,0.20
2019-03-19T01:03:41.823Z,0.20
2019-03-19T01:04:41.802Z,0.20
2019-03-19T01:05:41.785Z,0.10
2019-03-19T01:06:41.780Z,0.20
2019-03-19T01:07:41.767Z,0.30
2019-03-19T01:08:41.797Z,0.10
2019-03-19T01:09:41.746Z,0.30
2019-03-19T01:10:41.731Z,0.20
2019-03-19T01:11:41.721Z,0.20
2019-03-19T01:12:41.716Z,0.40
2019-03-19T01:13:41.702Z,0.20
2019-03-19T01:14:41.701Z,0.20
2019-03-19T01:15:41.678Z,0.20
2019-03-19T01:16:41.668Z,0.20
2019-03-19T01:17:41.656Z,0.20
2019-03-19T01:18:41.643Z,0.20
2019-03-19T01:19:41.673Z,0.20
2019-03-19T01:20:41.619Z,0.10
2019-03-19T01:21:41.615Z,0.30
2019-03-19T01:22:41.596Z,0.30
2019-03-19T01:23:51.934Z,0.20
2019-03-19T01:24:41.576Z,0.20
2019-03-19T01:25:54.785Z,0.20
2019-03-19T01:26:42.554Z,0.20
2019-03-19T01:27:41.547Z,0.20
2019-03-19T01:28:41.532Z,0.30
2019-03-19T01:29:41.527Z,0.20
2019-03-19T01:30:41.543Z,0.30
2019-03-19T01:31:41.500Z,0.20
2019-03-19T01:32:41.487Z,0.20
2019-03-19T01:33:41.478Z,0.20
2019-03-19T01:34:41.469Z,0.20
2019-03-19T01:35:41.453Z,0.10
2019-03-19T01:36:41.478Z,0.30
2019-03-19T01:37:41.435Z,0.20
2019-03-19T01:38:41.423Z,0.10
2019-03-19T01:39:41.425Z,0.20
2019-03-19T01:40:41.398Z,0.20
2019-03-19T01:41:41.391Z,0.20
2019-03-19T01:42:41.425Z,0.20
2019-03-19T01:43:41.371Z,0.20
2019-03-19T01:44:41.353Z,0.10
2019-03-19T01:45:41.344Z,0.20
2019-03-19T01:46:41.340Z,0.20
2019-03-19T01:47:41.326Z,0.20
2019-03-19T01:48:41.354Z,0.30
2019-03-19T01:49:41.302Z,0.20
2019-03-19T01:50:41.293Z,0.20
2019-03-19T01:51:41.281Z,0.20
2019-03-19T01:52:41.264Z,0.10
2019-03-19T01:53:41.256Z,0.10
2019-03-19T01:54:51.241Z,0.20
2019-03-19T01:55:41.239Z,0.20
2019-03-19T01:56:41.229Z,0.20
2019-03-19T01:57:41.216Z,0.20
2019-03-19T01:58:41.208Z,0.20
2019-03-19T01:59:41.186Z,0.10
2019-03-19T02:00:41.180Z,0.20
2019-03-19T02:01:41.164Z,0.20
2019-03-19T02:02:41.159Z,0.20
2019-03-19T02:03:41.183Z,0.20
2019-03-19T02:04:41.133Z,0.10
2019-03-19T02:05:41.120Z,0.20
2019-03-19T02:06:41.114Z,0.10
2019-03-19T02:07:41.097Z,0.10
2019-03-19T02:08:41.090Z,0.60
2019-03-19T02:09:41.156Z,0.10
2019-03-19T02:10:41.071Z,0.20
2019-03-19T02:11:41.057Z,0.10
2019-03-19T02:12:41.045Z,0.20
2019-03-19T02:13:41.029Z,0.10
2019-03-19T02:14:41.056Z,0.20
2019-03-19T02:15:41.012Z,0.20
2019-03-19T02:16:40.995Z,0.10
2019-03-19T02:17:40.990Z,0.10
2019-03-19T02:18:40.979Z,0.10
2019-03-19T02:19:40.969Z,0.20
2019-03-19T02:20:40.993Z,0.20
2019-03-19T02:21:40.948Z,0.20
2019-03-19T02:22:40.934Z,0.20
2019-03-19T02:23:40.920Z,0.10
2019-03-19T02:24:40.917Z,0.10
2019-03-19T02:25:51.780Z,0.10
2019-03-19T02:26:40.888Z,0.20
2019-03-19T02:27:40.873Z,0.10
2019-03-19T02:28:40.869Z,0.20
2019-03-19T02:29:40.853Z,0.10
2019-03-19T02:30:40.846Z,0.10
2019-03-19T02:31:40.881Z,0.20
2019-03-19T02:32:40.825Z,0.20
2019-03-19T02:33:40.815Z,0.20
2019-03-19T02:34:40.807Z,0.10
2019-03-19T02:35:40.790Z,0.20
2019-03-19T02:36:40.776Z,0.20
2019-03-19T02:37:40.798Z,0.10
2019-03-19T02:38:40.752Z,0.10
2019-03-19T02:39:40.743Z,0.10
2019-03-19T02:40:40.731Z,0.10
2019-03-19T02:41:40.731Z,0.20
2019-03-19T02:42:40.713Z,0.20
2019-03-19T02:43:40.708Z,0.20
2019-03-19T02:44:40.690Z,0.20
2019-03-19T02:45:40.680Z,0.10
2019-03-19T02:46:40.666Z,0.20
2019-03-19T02:47:40.657Z,0.20
2019-03-19T02:48:40.677Z,0.20
2019-03-19T02:49:40.630Z,0.10
2019-03-19T02:50:40.618Z,0.20
2019-03-19T02:51:40.611Z,0.20
2019-03-19T02:52:40.599Z,0.10
2019-03-19T02:53:40.591Z,0.10
2019-03-19T02:54:40.588Z,0.20
2019-03-19T02:55:40.563Z,0.20
2019-03-19T02:56:51.951Z,0.20
2019-03-19T02:57:40.556Z,0.10
2019-03-19T02:58:40.537Z,0.20
2019-03-19T02:59:40.555Z,0.20
2019-03-19T03:00:40.517Z,0.20
2019-03-19T03:01:40.496Z,0.10
2019-03-19T03:02:40.487Z,0.10
2019-03-19T03:03:40.477Z,0.20
2019-03-19T03:04:40.471Z,0.20
2019-03-19T03:05:40.471Z,0.20
2019-03-19T03:06:40.479Z,0.20
2019-03-19T03:07:40.439Z,0.20
2019-03-19T03:08:40.422Z,0.20
2019-03-19T03:09:40.411Z,0.30
2019-03-19T03:10:40.403Z,0.20
2019-03-19T03:11:40.382Z,0.20
2019-03-19T03:12:40.416Z,0.10
2019-03-19T03:13:40.365Z,0.20
2019-03-19T03:14:40.358Z,0.20
2019-03-19T03:15:40.338Z,0.20
2019-03-19T03:16:40.328Z,0.20
2019-03-19T03:17:40.326Z,0.30
2019-03-19T03:18:40.318Z,0.20
2019-03-19T03:19:40.295Z,0.10
2019-03-19T03:20:40.282Z,0.30
2019-03-19T03:21:40.277Z,0.30
2019-03-19T03:22:40.300Z,0.30
2019-03-19T03:23:40.259Z,0.30
2019-03-19T03:24:40.243Z,0.20
2019-03-19T03:25:40.240Z,0.20
2019-03-19T03:26:47.828Z,0.20
2019-03-19T03:28:52.788Z,0.40
2019-03-19T03:29:52.751Z,0.20
2019-03-19T03:30:52.733Z,0.20
2019-03-19T03:31:52.718Z,0.30
2019-03-19T03:32:52.714Z,0.20
2019-03-19T03:33:52.696Z,0.20
2019-03-19T03:34:52.697Z,0.20
2019-03-19T03:35:52.681Z,0.20
2019-03-19T03:36:52.679Z,0.20
2019-03-19T03:37:52.657Z,0.30
2019-03-19T03:38:52.640Z,0.20
2019-03-19T03:39:52.666Z,0.20
2019-03-19T03:40:52.618Z,0.20
2019-03-19T03:41:52.614Z,0.20
2019-03-19T03:42:52.604Z,0.30
2019-03-19T03:43:52.589Z,0.30
2019-03-19T03:44:52.582Z,0.30
2019-03-19T03:45:52.572Z,0.20
2019-03-19T03:46:52.587Z,0.20
2019-03-19T03:47:52.653Z,0.20
2019-03-19T03:48:52.531Z,0.30
2019-03-19T03:49:52.600Z,0.30
2019-03-19T03:50:52.514Z,0.20
2019-03-19T03:51:52.511Z,0.20
2019-03-19T03:52:52.490Z,0.20
2019-03-19T03:53:52.480Z,0.40
2019-03-19T03:54:52.464Z,0.20
2019-03-19T03:55:52.452Z,0.30
2019-03-19T03:57:01.696Z,0.30
2019-03-19T03:57:53.430Z,0.30
2019-03-19T03:59:01.001Z,0.70
2019-03-19T03:59:52.406Z,0.30
2019-03-19T04:00:52.399Z,0.30
2019-03-19T04:01:52.385Z,0.30
2019-03-19T04:02:52.384Z,0.30
2019-03-19T04:03:52.368Z,1.40
2019-03-19T04:04:52.356Z,1.20
2019-03-19T04:05:52.352Z,3.60
2019-03-19T04:06:52.329Z,0.70
2019-03-19T04:07:52.372Z,1.40
2019-03-19T04:08:52.308Z,1.00
2019-03-19T04:09:52.303Z,1.80
2019-03-19T04:10:52.285Z,0.40
2019-03-19T04:11:52.274Z,0.40
2019-03-19T04:12:52.262Z,1.70
2019-03-19T04:13:52.319Z,0.50
2019-03-19T04:14:52.247Z,0.50
2019-03-19T04:15:52.230Z,0.30
2019-03-19T04:16:52.216Z,0.60
2019-03-19T04:17:52.205Z,0.50
2019-03-19T04:18:52.197Z,0.40
2019-03-19T04:19:52.195Z,1.10
2019-03-19T04:20:52.181Z,0.50
2019-03-19T04:21:52.162Z,0.50
2019-03-19T04:22:52.153Z,0.50
2019-03-19T04:23:52.139Z,0.30
2019-03-19T04:24:52.148Z,0.80
2019-03-19T04:25:52.116Z,0.30
2019-03-19T04:26:52.109Z,0.70
2019-03-19T04:27:52.102Z,0.30
2019-03-19T04:28:52.088Z,0.80
2019-03-19T04:30:02.252Z,0.30
2019-03-19T04:30:52.064Z,0.30
2019-03-19T04:31:52.051Z,0.40
2019-03-19T04:32:52.050Z,0.40
2019-03-19T04:33:52.028Z,1.40
2019-03-19T04:34:52.015Z,1.50
2019-03-19T04:35:52.060Z,0.30
2019-03-19T04:36:51.992Z,0.50
2019-03-19T04:37:51.984Z,0.50
2019-03-19T04:38:51.975Z,0.70
2019-03-19T04:39:51.966Z,0.40
2019-03-19T04:40:51.955Z,0.40
2019-03-19T04:41:51.983Z,0.30
2019-03-19T04:42:51.928Z,0.30
2019-03-19T04:43:51.916Z,0.30
2019-03-19T04:44:51.904Z,1.70
2019-03-19T04:45:51.902Z,0.40
2019-03-19T04:46:51.888Z,0.30
2019-03-19T04:47:51.883Z,0.40
2019-03-19T04:48:51.858Z,0.30
2019-03-19T04:49:51.854Z,0.40
2019-03-19T04:50:51.836Z,0.50
2019-03-19T04:51:51.832Z,0.40
2019-03-19T04:52:51.857Z,0.80
2019-03-19T04:53:51.805Z,0.70
2019-03-19T04:54:51.792Z,1.00
2019-03-19T04:55:51.780Z,0.50
2019-03-19T04:56:51.775Z,0.30
2019-03-19T04:57:51.764Z,0.30
2019-03-19T04:58:51.765Z,0.60
2019-03-19T04:59:51.742Z,0.40
2019-03-19T05:01:02.123Z,0.40
2019-03-19T05:01:51.719Z,0.40
2019-03-19T05:02:51.708Z,1.20
2019-03-19T05:03:51.703Z,0.40
2019-03-19T05:04:51.704Z,0.30
2019-03-19T05:05:51.672Z,0.30
2019-03-19T05:06:51.660Z,0.40
2019-03-19T05:07:51.650Z,0.40
2019-03-19T05:08:51.638Z,0.30
2019-03-19T05:09:51.627Z,0.40
2019-03-19T05:10:51.661Z,0.40
2019-03-19T05:11:51.609Z,0.90
2019-03-19T05:12:51.604Z,0.50
2019-03-19T05:13:51.585Z,0.40
2019-03-19T05:14:51.579Z,0.30
2019-03-19T05:15:51.565Z,0.30
2019-03-19T05:16:51.562Z,0.40
2019-03-19T05:17:51.542Z,0.40
2019-03-19T05:18:51.531Z,0.30
2019-03-19T05:19:51.516Z,0.40
2019-03-19T05:20:51.511Z,0.30
2019-03-19T05:21:51.494Z,0.40
2019-03-19T05:22:51.486Z,0.30
2019-03-19T05:23:51.474Z,0.30
2019-03-19T05:24:51.461Z,0.80
2019-03-19T05:25:51.486Z,0.40
2019-03-19T05:26:51.438Z,0.40
2019-03-19T05:27:51.427Z,0.30
2019-03-19T05:28:51.412Z,0.30
2019-03-19T05:29:51.410Z,0.40
2019-03-19T05:30:51.397Z,0.40
2019-03-19T05:32:02.268Z,0.50
2019-03-19T05:32:51.376Z,0.30
2019-03-19T05:33:51.363Z,0.30
2019-03-19T05:34:51.350Z,0.30
2019-03-19T05:35:51.344Z,0.30
2019-03-19T05:36:51.365Z,0.30
2019-03-19T05:37:51.315Z,0.20
2019-03-19T05:38:51.307Z,0.30
2019-03-19T05:39:51.301Z,0.30
2019-03-19T05:40:51.281Z,0.30
2019-03-19T05:41:51.268Z,0.30
2019-03-19T05:42:51.268Z,0.30
2019-03-19T05:43:51.249Z,0.30
2019-03-19T05:44:51.238Z,0.20
2019-03-19T05:45:51.231Z,0.40
2019-03-19T05:46:51.221Z,0.30
2019-03-19T05:47:51.248Z,0.30
2019-03-19T05:48:51.194Z,0.30
2019-03-19T05:49:51.184Z,0.30
2019-03-19T05:50:51.178Z,0.30
2019-03-19T05:51:51.160Z,0.30
2019-03-19T05:52:51.154Z,0.30
2019-03-19T05:53:51.177Z,0.30
2019-03-19T05:54:51.131Z,0.30
2019-03-19T05:55:51.119Z,0.30
2019-03-19T05:56:51.101Z,0.30
2019-03-19T05:57:51.094Z,0.30
2019-03-19T05:58:51.086Z,0.30
2019-03-19T05:59:51.305Z,0.30
2019-03-19T06:00:51.066Z,0.30
2019-03-19T06:01:51.051Z,0.30
2019-03-19T06:03:03.103Z,0.30
2019-03-19T06:03:51.025Z,0.30
2019-03-19T06:04:51.022Z,0.90
2019-03-19T06:05:51.009Z,0.50
2019-03-19T06:06:50.990Z,0.30
2019-03-19T06:07:50.990Z,0.80
2019-03-19T06:08:50.973Z,0.30
2019-03-19T06:09:50.959Z,0.20
2019-03-19T06:10:50.986Z,0.40
2019-03-19T06:11:50.936Z,0.90
2019-03-19T06:12:50.932Z,1.40
2019-03-19T06:13:50.915Z,0.30
2019-03-19T06:14:50.904Z,0.30
2019-03-19T06:15:50.889Z,3.60
2019-03-19T06:16:50.922Z,0.40
2019-03-19T06:17:50.868Z,1.80
2019-03-19T06:18:50.861Z,1.70
2019-03-19T06:19:50.914Z,0.30
2019-03-19T06:20:50.844Z,0.60
2019-03-19T06:21:50.825Z,2.70
2019-03-19T06:22:50.831Z,0.90
2019-03-19T06:23:50.808Z,1.60
2019-03-19T06:24:50.796Z,0.30
2019-03-19T06:25:50.784Z,0.30
2019-03-19T06:26:50.813Z,1.40
2019-03-19T06:27:59.912Z,1.70
2019-03-19T06:28:51.753Z,2.10
2019-03-19T06:29:50.741Z,1.70
2019-03-19T06:30:50.734Z,1.60
2019-03-19T06:31:50.714Z,1.80
2019-03-19T06:32:50.711Z,4.30
2019-03-19T06:34:00.855Z,0.80
2019-03-19T06:34:50.685Z,0.40
2019-03-19T06:35:50.675Z,0.50
2019-03-19T06:36:50.658Z,1.10
2019-03-19T06:37:50.653Z,1.40
2019-03-19T06:38:50.638Z,5.10
2019-03-19T06:39:50.841Z,5.20
2019-03-19T06:40:50.616Z,6.20
2019-03-19T06:41:50.601Z,2.90
2019-03-19T06:42:50.596Z,7.70
2019-03-19T06:43:50.623Z,1.20
2019-03-19T06:44:50.566Z,5.40
2019-03-19T06:45:50.558Z,2.70
2019-03-19T06:46:50.550Z,1.90
2019-03-19T06:47:50.568Z,3.30
2019-03-19T06:48:50.524Z,2.20
2019-03-19T06:49:50.525Z,0.70
2019-03-19T06:50:50.544Z,3.20
2019-03-19T06:51:50.494Z,5.00
2019-03-19T06:52:50.538Z,11.70
2019-03-19T06:53:50.474Z,8.00
2019-03-19T06:54:50.463Z,7.60
2019-03-19T06:55:50.450Z,4.60
2019-03-19T06:56:50.444Z,5.80
2019-03-19T06:57:50.438Z,7.50
2019-03-19T06:58:50.418Z,8.90
2019-03-19T06:59:50.405Z,7.60
2019-03-19T07:00:50.399Z,4.40
2019-03-19T07:01:50.418Z,3.60
2019-03-19T07:02:50.367Z,12.70
2019-03-19T07:03:50.358Z,4.40
2019-03-19T07:05:00.259Z,3.60
2019-03-19T07:05:50.338Z,8.80
2019-03-19T07:06:50.328Z,3.50
2019-03-19T07:07:50.323Z,6.80
2019-03-19T07:08:50.306Z,7.40
2019-03-19T07:09:50.316Z,6.70
2019-03-19T07:10:50.286Z,8.30
2019-03-19T07:11:50.275Z,12.90
2019-03-19T07:12:50.257Z,7.80
2019-03-19T07:13:50.248Z,8.10
2019-03-19T07:14:50.240Z,8.50
2019-03-19T07:15:50.262Z,5.10
2019-03-19T07:16:50.211Z,5.40
2019-03-19T07:17:50.211Z,3.40
2019-03-19T07:18:50.193Z,3.70
2019-03-19T07:19:50.182Z,4.60
2019-03-19T07:20:50.169Z,4.10
2019-03-19T07:21:50.198Z,3.10
2019-03-19T07:22:50.149Z,3.60
2019-03-19T07:23:50.180Z,4.60
2019-03-19T07:24:50.126Z,4.50
2019-03-19T07:25:50.121Z,0.40
2019-03-19T07:26:50.104Z,5.00
2019-03-19T07:27:50.096Z,5.60
2019-03-19T07:28:50.080Z,1.50
2019-03-19T07:29:50.081Z,1.50
2019-03-19T07:30:50.060Z,2.50
2019-03-19T07:31:50.052Z,3.10
2019-03-19T07:32:50.039Z,3.00
2019-03-19T07:33:50.025Z,3.30
2019-03-19T07:34:50.050Z,2.30
2019-03-19T07:36:00.248Z,1.90
2019-03-19T07:36:49.995Z,1.50
2019-03-19T07:37:49.979Z,1.00
2019-03-19T07:38:49.971Z,1.80
2019-03-19T07:39:49.965Z,2.20
2019-03-19T07:40:49.969Z,0.30
2019-03-19T07:41:49.937Z,0.30
2019-03-19T07:42:49.929Z,1.70
2019-03-19T07:43:49.920Z,0.30
2019-03-19T07:44:49.905Z,0.40
2019-03-19T07:45:49.901Z,0.40
2019-03-19T07:46:49.889Z,1.20
2019-03-19T07:47:49.868Z,1.40
2019-03-19T07:48:50.375Z,1.70
2019-03-19T07:49:49.845Z,0.30
2019-03-19T07:50:49.837Z,0.80
2019-03-19T07:51:49.845Z,0.30
2019-03-19T07:52:49.812Z,0.70
2019-03-19T07:53:49.802Z,1.70
2019-03-19T07:54:49.790Z,0.50
2019-03-19T07:55:49.781Z,0.30
2019-03-19T07:56:49.767Z,0.30
2019-03-19T07:57:49.792Z,0.30
2019-03-19T07:58:49.742Z,0.40
2019-03-19T07:59:49.733Z,1.50
2019-03-19T08:00:49.721Z,0.40
2019-03-19T08:01:49.714Z,0.60
2019-03-19T08:02:49.700Z,0.30
2019-03-19T08:03:49.701Z,0.60
2019-03-19T08:04:49.682Z,0.40
2019-03-19T08:05:49.665Z,0.30
2019-03-19T08:07:00.240Z,0.20
2019-03-19T08:07:49.648Z,4.10
2019-03-19T08:08:49.644Z,0.30
2019-03-19T08:09:49.644Z,0.50
2019-03-19T08:10:49.614Z,0.30
2019-03-19T08:11:49.601Z,0.30
2019-03-19T08:12:49.599Z,1.00
2019-03-19T08:13:49.580Z,0.20
2019-03-19T08:14:49.565Z,0.40
2019-03-19T08:15:49.561Z,0.40
2019-03-19T08:16:49.543Z,0.40
2019-03-19T08:17:49.532Z,0.40
2019-03-19T08:18:49.526Z,0.50
2019-03-19T08:19:49.547Z,0.40
2019-03-19T08:20:49.499Z,1.40
2019-03-19T08:21:49.492Z,0.50
2019-03-19T08:22:49.478Z,1.20
2019-03-19T08:23:49.468Z,1.90
2019-03-19T08:24:49.461Z,0.50
2019-03-19T08:25:49.468Z,0.60
2019-03-19T08:26:49.438Z,0.50
2019-03-19T08:27:49.419Z,0.80
2019-03-19T08:28:55.227Z,0.80
2019-03-19T08:29:50.403Z,0.50
2019-03-19T08:30:49.388Z,0.40
2019-03-19T08:31:49.411Z,0.40
2019-03-19T08:32:49.370Z,1.00
2019-03-19T08:33:49.400Z,1.50
2019-03-19T08:34:49.346Z,1.00
2019-03-19T08:35:49.333Z,1.10
2019-03-19T08:36:49.324Z,5.80
2019-03-19T08:37:59.957Z,2.60
2019-03-19T08:38:49.301Z,1.80
2019-03-19T08:39:49.294Z,1.30
2019-03-19T08:40:50.979Z,4.80
2019-03-19T08:41:49.311Z,4.50
2019-03-19T08:42:49.257Z,0.40
2019-03-19T08:43:49.240Z,1.20
2019-03-19T08:44:49.245Z,1.70
2019-03-19T08:45:49.238Z,1.20
2019-03-19T08:46:49.220Z,2.30
2019-03-19T08:47:49.240Z,1.70
2019-03-19T08:48:49.202Z,1.10
2019-03-19T08:49:49.178Z,1.60
2019-03-19T08:50:49.176Z,0.50
2019-03-19T08:51:49.156Z,1.70
2019-03-19T08:52:49.144Z,1.80
2019-03-19T08:53:49.171Z,1.90
2019-03-19T08:54:49.125Z,3.10
2019-03-19T08:55:49.115Z,0.80
2019-03-19T08:56:49.103Z,0.70
2019-03-19T08:57:49.097Z,3.90
2019-03-19T08:58:49.082Z,3.00
2019-03-19T08:59:49.107Z,2.00
2019-03-19T09:00:49.057Z,1.50
2019-03-19T09:01:49.051Z,0.50
2019-03-19T09:02:49.044Z,6.30
2019-03-19T09:03:49.029Z,0.80
2019-03-19T09:04:49.019Z,1.40
2019-03-19T09:05:49.038Z,0.90
2019-03-19T09:06:48.988Z,2.60
2019-03-19T09:07:48.985Z,0.90
2019-03-19T09:09:02.134Z,0.50
2019-03-19T09:09:48.960Z,1.30
2019-03-19T09:10:48.944Z,0.50
2019-03-19T09:11:48.952Z,1.00
2019-03-19T09:12:49.129Z,0.50
2019-03-19T09:13:48.913Z,1.10
2019-03-19T09:14:48.906Z,1.10
2019-03-19T09:15:49.021Z,0.40
2019-03-19T09:16:48.884Z,0.50
2019-03-19T09:17:48.881Z,1.50
2019-03-19T09:18:48.855Z,0.40
2019-03-19T09:19:48.846Z,1.00
2019-03-19T09:20:48.839Z,0.40
2019-03-19T09:21:48.831Z,1.00
2019-03-19T09:22:48.813Z,0.50
2019-03-19T09:23:48.800Z,0.40
2019-03-19T09:24:48.790Z,0.30
2019-03-19T09:25:48.783Z,0.50
2019-03-19T09:26:48.811Z,1.40
2019-03-19T09:27:48.766Z,0.40
2019-03-19T09:28:48.748Z,0.20
2019-03-19T09:29:48.740Z,0.60
2019-03-19T09:30:48.727Z,0.30
2019-03-19T09:31:48.710Z,0.40
2019-03-19T09:32:48.712Z,0.30
2019-03-19T09:33:48.734Z,0.40
2019-03-19T09:34:48.678Z,0.30
2019-03-19T09:35:48.670Z,0.40
2019-03-19T09:36:57.071Z,0.40
2019-03-19T09:37:58.391Z,0.30
2019-03-19T09:38:49.678Z,0.40
2019-03-19T09:40:00.464Z,0.40
2019-03-19T09:40:48.610Z,0.40
2019-03-19T09:41:48.607Z,0.40
2019-03-19T09:42:48.589Z,0.90
2019-03-19T09:43:48.577Z,0.40
2019-03-19T09:44:58.233Z,0.40
2019-03-19T09:45:49.561Z,0.40
2019-03-19T09:46:48.549Z,0.30
2019-03-19T09:47:48.532Z,0.40
2019-03-19T09:48:48.527Z,0.40
2019-03-19T09:49:48.510Z,0.40
2019-03-19T09:50:48.509Z,0.40
2019-03-19T09:51:48.495Z,0.30
2019-03-19T09:52:48.482Z,0.40
2019-03-19T09:53:48.471Z,0.40
2019-03-19T09:54:48.460Z,0.40
2019-03-19T09:55:48.481Z,0.40
2019-03-19T09:56:48.432Z,0.60
2019-03-19T09:57:48.420Z,0.30
2019-03-19T09:58:48.411Z,0.40
2019-03-19T09:59:48.402Z,1.20
2019-03-19T10:00:48.392Z,3.20
2019-03-19T10:01:48.420Z,0.30
2019-03-19T10:02:48.371Z,0.40
2019-03-19T10:03:48.359Z,0.40
2019-03-19T10:04:48.350Z,0.50
2019-03-19T10:05:48.331Z,0.90
2019-03-19T10:06:48.326Z,0.50
2019-03-19T10:07:48.357Z,0.80
2019-03-19T10:08:48.302Z,0.40
2019-03-19T10:09:48.292Z,0.30
2019-03-19T10:10:58.947Z,0.80
2019-03-19T10:11:48.270Z,1.10
2019-03-19T10:12:48.256Z,0.70
2019-03-19T10:13:48.257Z,1.10
2019-03-19T10:14:48.231Z,0.40
2019-03-19T10:15:48.224Z,1.50
2019-03-19T10:16:48.212Z,0.40
2019-03-19T10:17:48.203Z,2.40
2019-03-19T10:18:48.197Z,0.30
2019-03-19T10:19:48.178Z,0.70
2019-03-19T10:20:48.164Z,3.40
2019-03-19T10:21:48.151Z,0.40
2019-03-19T10:22:48.146Z,1.20
2019-03-19T10:23:48.139Z,1.20
2019-03-19T10:24:48.125Z,1.90
2019-03-19T10:25:48.108Z,0.40
2019-03-19T10:26:48.096Z,1.10
2019-03-19T10:27:48.084Z,0.50
2019-03-19T10:28:48.083Z,0.50
2019-03-19T10:29:48.101Z,1.50
2019-03-19T10:30:48.049Z,0.80
2019-03-19T10:31:48.039Z,0.40
2019-03-19T10:32:48.033Z,3.40
2019-03-19T10:33:48.022Z,2.20
2019-03-19T10:34:48.006Z,0.70
2019-03-19T10:35:48.032Z,0.50
2019-03-19T10:36:47.990Z,0.60
2019-03-19T10:37:47.977Z,1.30
2019-03-19T10:38:47.970Z,1.90
2019-03-19T10:39:47.955Z,1.20
2019-03-19T10:40:47.942Z,0.50
2019-03-19T10:41:58.578Z,0.70
2019-03-19T10:42:47.919Z,0.50
2019-03-19T10:43:47.908Z,0.70
2019-03-19T10:44:47.898Z,3.70
2019-03-19T10:45:47.883Z,0.90
2019-03-19T10:46:47.915Z,0.40
2019-03-19T10:47:47.867Z,2.20
2019-03-19T10:48:47.853Z,0.70
2019-03-19T10:49:47.847Z,2.10
2019-03-19T10:50:47.831Z,7.20
2019-03-19T10:51:47.821Z,2.40
2019-03-19T10:52:47.845Z,0.70
2019-03-19T10:53:47.796Z,0.90
2019-03-19T10:54:47.790Z,0.70
2019-03-19T10:55:47.773Z,0.40
2019-03-19T10:56:47.763Z,1.50
2019-03-19T10:57:47.766Z,0.40
2019-03-19T10:58:47.780Z,0.50
2019-03-19T10:59:49.385Z,2.70
2019-03-19T11:00:47.724Z,0.30
2019-03-19T11:01:47.711Z,1.70
2019-03-19T11:02:47.695Z,1.40
2019-03-19T11:03:47.690Z,1.40
2019-03-19T11:04:47.682Z,0.50
2019-03-19T11:05:47.663Z,1.40
2019-03-19T11:06:47.662Z,1.10
2019-03-19T11:07:47.647Z,1.00
2019-03-19T11:08:47.637Z,3.00
2019-03-19T11:09:47.629Z,0.40
2019-03-19T11:10:47.611Z,1.20
2019-03-19T11:11:47.606Z,0.60
2019-03-19T11:12:57.615Z,1.40
2019-03-19T11:13:47.578Z,1.40
2019-03-19T11:14:47.608Z,1.50
2019-03-19T11:15:47.561Z,0.50
2019-03-19T11:16:47.541Z,4.30
2019-03-19T11:17:47.535Z,2.00
2019-03-19T11:18:47.525Z,6.40
2019-03-19T11:19:47.508Z,5.30
2019-03-19T11:20:47.527Z,3.80
2019-03-19T11:21:47.489Z,1.80
2019-03-19T11:22:47.478Z,1.60
2019-03-19T11:23:47.465Z,2.70
2019-03-19T11:24:47.457Z,1.20
2019-03-19T11:25:54.373Z,2.90
2019-03-19T11:26:48.443Z,2.90
2019-03-19T11:27:47.434Z,1.60
2019-03-19T11:28:47.406Z,0.50
2019-03-19T11:29:47.397Z,0.50
2019-03-19T11:30:47.390Z,0.60
2019-03-19T11:31:47.383Z,2.20
2019-03-19T11:32:47.400Z,1.40
2019-03-19T11:33:47.793Z,0.50
2019-03-19T11:34:47.347Z,0.50
2019-03-19T11:35:47.340Z,0.50
2019-03-19T11:36:57.159Z,0.50
2019-03-19T11:37:48.318Z,1.80
2019-03-19T11:38:47.302Z,1.30
2019-03-19T11:39:47.296Z,1.30
2019-03-19T11:40:47.271Z,0.60
2019-03-19T11:41:47.262Z,0.50
2019-03-19T11:42:47.252Z,0.60
2019-03-19T11:43:57.096Z,0.80
2019-03-19T11:44:47.245Z,0.90
2019-03-19T11:45:47.218Z,0.50
2019-03-19T11:46:47.211Z,0.50
2019-03-19T11:47:47.199Z,0.40
2019-03-19T11:48:47.192Z,0.80
2019-03-19T11:49:47.177Z,0.60
2019-03-19T11:50:47.181Z,0.60
2019-03-19T11:51:47.196Z,0.50
2019-03-19T11:52:47.208Z,0.40
2019-03-19T11:53:47.131Z,0.50
2019-03-19T11:54:47.116Z,0.50
2019-03-19T11:55:47.105Z,0.60
2019-03-19T11:56:47.105Z,0.50
2019-03-19T11:57:47.084Z,0.90
2019-03-19T11:58:47.071Z,0.40
2019-03-19T11:59:47.059Z,0.50
2019-03-19T12:00:47.050Z,0.40
2019-03-19T12:01:47.048Z,2.90
2019-03-19T12:02:47.026Z,1.40
2019-03-19T12:03:47.017Z,0.50
2019-03-19T12:04:47.003Z,0.50
2019-03-19T12:05:46.994Z,1.20
2019-03-19T12:06:47.048Z,0.40
2019-03-19T12:07:46.981Z,0.40
2019-03-19T12:08:46.957Z,0.40
2019-03-19T12:09:46.945Z,2.00
2019-03-19T12:10:46.938Z,0.50
2019-03-19T12:11:46.929Z,0.40
2019-03-19T12:12:46.922Z,0.40
2019-03-19T12:13:46.901Z,0.50
2019-03-19T12:14:58.001Z,0.50
2019-03-19T12:15:46.877Z,0.30
2019-03-19T12:16:46.876Z,0.40
2019-03-19T12:17:48.805Z,0.50
2019-03-19T12:18:46.858Z,0.40
2019-03-19T12:19:46.836Z,0.40
2019-03-19T12:20:46.827Z,0.40
2019-03-19T12:21:46.813Z,0.40
2019-03-19T12:22:46.807Z,0.50
2019-03-19T12:23:46.827Z,0.40
2019-03-19T12:24:46.778Z,0.40
2019-03-19T12:25:46.767Z,0.40
2019-03-19T12:26:46.764Z,0.40
2019-03-19T12:27:46.748Z,0.30
2019-03-19T12:28:46.822Z,0.40
2019-03-19T12:29:46.764Z,0.40
2019-03-19T12:30:46.709Z,0.40
2019-03-19T12:31:46.698Z,0.40
2019-03-19T12:32:46.693Z,0.40
2019-03-19T12:33:46.682Z,0.80
2019-03-19T12:34:46.670Z,0.40
2019-03-19T12:35:46.674Z,0.40
2019-03-19T12:36:46.649Z,0.30
2019-03-19T12:37:46.633Z,0.30
2019-03-19T12:38:46.627Z,0.50
2019-03-19T12:39:46.608Z,0.40
2019-03-19T12:40:46.601Z,0.40
2019-03-19T12:41:48.547Z,0.30
2019-03-19T12:42:46.574Z,0.40
2019-03-19T12:43:46.564Z,0.40
2019-03-19T12:44:46.557Z,0.40
2019-03-19T12:45:56.875Z,0.50
2019-03-19T12:46:46.537Z,0.40
2019-03-19T12:47:46.531Z,0.30
2019-03-19T12:48:46.517Z,0.30
2019-03-19T12:49:46.504Z,0.30
2019-03-19T12:50:46.529Z,0.30
2019-03-19T12:51:46.561Z,0.40
2019-03-19T12:52:46.470Z,0.30
2019-03-19T12:53:46.462Z,0.40
2019-03-19T12:54:46.442Z,0.30
2019-03-19T12:55:46.438Z,0.30
2019-03-19T12:56:46.459Z,0.40
2019-03-19T12:57:46.412Z,0.30
2019-03-19T12:58:46.396Z,0.30
2019-03-19T12:59:46.389Z,0.60
2019-03-19T13:00:46.382Z,0.40
2019-03-19T13:01:46.367Z,0.40
2019-03-19T13:02:46.362Z,1.00
2019-03-19T13:03:46.343Z,0.40
2019-03-19T13:04:46.334Z,0.50
2019-03-19T13:05:46.321Z,0.30
2019-03-19T13:06:46.311Z,0.40
2019-03-19T13:07:46.340Z,0.50
2019-03-19T13:08:46.345Z,0.40
2019-03-19T13:09:46.279Z,0.40
2019-03-19T13:10:46.268Z,0.40
2019-03-19T13:11:46.256Z,0.40
2019-03-19T13:12:46.248Z,0.40
2019-03-19T13:13:46.276Z,0.30
2019-03-19T13:14:46.230Z,0.40
2019-03-19T13:15:46.206Z,0.40
2019-03-19T13:16:58.100Z,0.40
2019-03-19T13:17:46.191Z,2.70
2019-03-19T13:18:46.175Z,0.30
2019-03-19T13:19:46.169Z,0.30